Time;durP1;ratioP1;P1;durP2;ratioP2;P2;SDS_P1;SDS_P2;PMS_P1;PMS_P2;Temp;Humidity;BMP_temperature;BMP_pressure;BME280_temperature;BME280_humidity;BME280_pressure;Samples;Min_cycle;Max_cycle;Signal;HPM_P1;HPM_P2
2021/12/06 00:00:59;;;;;;;19.52;13.07;;;;;;;;;;5071906;28;20098;-71
2021/12/06 00:03:30;;;;;;;19.52;12.60;;;;;;;;;;5068647;28;20579;-71
2021/12/06 00:05:56;;;;;;;17.90;12.13;;;;;;;;;;5069397;28;20043;-71
2021/12/06 00:08:22;;;;;;;21.42;13.38;;;;;;;;;;5069386;28;20402;-71
2021/12/06 00:10:50;;;;;;;20.73;12.68;;;;;;;;;;5067102;28;20028;-71
2021/12/06 00:13:20;;;;;;;19.55;12.02;;;;;;;;;;5071217;28;20036;-72
2021/12/06 00:15:48;;;;;;;17.20;11.15;;;;;;;;;;5066996;28;20056;-71
2021/12/06 00:18:15;;;;;;;17.27;10.70;;;;;;;;;;5086900;28;20044;-71
2021/12/06 00:20:41;;;;;;;16.13;12.07;;;;;;;;;;5068067;28;20118;-71
2021/12/06 00:23:07;;;;;;;18.10;12.07;;;;;;;;;;5069353;28;20404;-72
2021/12/06 00:25:35;;;;;;;20.02;11.75;;;;;;;;;;5069740;28;20036;-71
2021/12/06 00:28:01;;;;;;;16.35;10.70;;;;;;;;;;5078271;28;20101;-71
2021/12/06 00:30:27;;;;;;;17.92;11.45;;;;;;;;;;5067913;28;20044;-71
2021/12/06 00:32:53;;;;;;;20.75;11.85;;;;;;;;;;5053482;28;20048;-71
2021/12/06 00:35:23;;;;;;;19.63;13.43;;;;;;;;;;5061750;28;20043;-72
2021/12/06 00:37:58;;;;;;;25.70;15.95;;;;;;;;;;5065614;28;20036;-72
2021/12/06 00:40:53;;;;;;;22.00;14.10;;;;;;;;;;5069643;28;20043;-71
2021/12/06 00:43:19;;;;;;;23.42;16.48;;;;;;;;;;5060945;28;20045;-71
2021/12/06 00:45:45;;;;;;;23.35;17.00;;;;;;;;;;5049137;28;20048;-71
2021/12/06 00:48:11;;;;;;;27.63;15.73;;;;;;;;;;5073340;28;20033;-71
2021/12/06 00:50:40;;;;;;;25.55;16.52;;;;;;;;;;5072920;28;20105;-71
2021/12/06 00:53:07;;;;;;;27.23;16.50;;;;;;;;;;5071760;28;20043;-71
2021/12/06 00:55:34;;;;;;;24.67;15.02;;;;;;;;;;5072131;28;20029;-71
2021/12/06 00:58:00;;;;;;;31.05;18.25;;;;;;;;;;5070625;28;20037;-71
2021/12/06 01:00:26;;;;;;;27.10;15.73;;;;;;;;;;5084271;28;20044;-71
2021/12/06 01:02:52;;;;;;;28.52;16.92;;;;;;;;;;5069904;28;20112;-71
2021/12/06 01:05:22;;;;;;;25.55;16.92;;;;;;;;;;5069870;28;20052;-71
2021/12/06 01:07:49;;;;;;;31.90;18.55;;;;;;;;;;5069012;28;20079;-71
2021/12/06 01:10:15;;;;;;;28.38;18.05;;;;;;;;;;5064971;28;20066;-71
2021/12/06 01:12:41;;;;;;;29.65;19.83;;;;;;;;;;5072577;28;20158;-71
2021/12/06 01:15:07;;;;;;;34.95;19.02;;;;;;;;;;5072512;28;20032;-71
2021/12/06 01:17:35;;;;;;;28.23;17.88;;;;;;;;;;5072353;28;20044;-71
2021/12/06 01:20:04;;;;;;;29.65;17.38;;;;;;;;;;5073784;28;20127;-71
2021/12/06 01:22:42;;;;;;;31.80;19.63;;;;;;;;;;5084439;28;20098;-71
2021/12/06 01:25:20;;;;;;;32.85;19.38;;;;;;;;;;5069853;28;20437;-71
2021/12/06 01:40:56;;;;;;;29.63;17.23;;;;;;;;;;5085199;28;20122;-71
2021/12/06 01:43:23;;;;;;;29.15;17.27;;;;;;;;;;5070622;28;20041;-71
2021/12/06 01:45:49;;;;;;;29.48;18.38;;;;;;;;;;5071718;28;20072;-71
2021/12/06 01:48:15;;;;;;;27.00;15.77;;;;;;;;;;5076071;28;20048;-71
2021/12/06 01:50:41;;;;;;;25.05;15.57;;;;;;;;;;5072958;28;20098;-71
2021/12/06 01:53:08;;;;;;;26.65;16.70;;;;;;;;;;5069354;28;20037;-71
2021/12/06 01:55:35;;;;;;;29.83;17.40;;;;;;;;;;5087129;28;20090;-72
2021/12/06 01:58:03;;;;;;;28.77;16.33;;;;;;;;;;5068047;28;20049;-72
2021/12/06 02:00:31;;;;;;;30.08;18.15;;;;;;;;;;5064883;28;20041;-71
2021/12/06 02:02:58;;;;;;;28.05;16.67;;;;;;;;;;5072046;28;20131;-71
2021/12/06 02:05:24;;;;;;;29.02;17.08;;;;;;;;;;5071766;28;20045;-71
2021/12/06 02:07:51;;;;;;;30.65;18.58;;;;;;;;;;5062475;28;20036;-71
2021/12/06 02:10:17;;;;;;;29.60;16.63;;;;;;;;;;5077750;28;20106;-71
2021/12/06 02:12:46;;;;;;;27.50;18.75;;;;;;;;;;5071197;28;20051;-71
2021/12/06 02:15:29;;;;;;;27.45;16.33;;;;;;;;;;5073696;28;20037;-71
2021/12/06 02:18:04;;;;;;;28.35;17.65;;;;;;;;;;5062344;28;20136;-71
2021/12/06 02:20:36;;;;;;;28.40;18.88;;;;;;;;;;5073631;28;20066;-71
2021/12/06 02:23:03;;;;;;;30.05;19.98;;;;;;;;;;5069071;28;20043;-71
2021/12/06 02:25:30;;;;;;;34.25;20.52;;;;;;;;;;5073922;28;20043;-71
2021/12/06 02:27:56;;;;;;;27.40;17.48;;;;;;;;;;5070208;28;20122;-71
2021/12/06 02:30:22;;;;;;;34.22;20.42;;;;;;;;;;5062962;28;20037;-71
2021/12/06 02:32:49;;;;;;;28.70;17.58;;;;;;;;;;5072214;28;20055;-71
2021/12/06 02:35:18;;;;;;;28.73;17.98;;;;;;;;;;5066956;28;20044;-71
2021/12/06 02:37:45;;;;;;;33.00;20.42;;;;;;;;;;5069773;28;20036;-71
2021/12/06 02:40:14;;;;;;;29.77;19.40;;;;;;;;;;5075305;28;20093;-71
2021/12/06 02:42:41;;;;;;;37.22;20.75;;;;;;;;;;5070593;28;20115;-71
2021/12/06 02:45:08;;;;;;;29.75;17.33;;;;;;;;;;5070324;28;20045;-71
2021/12/06 02:47:35;;;;;;;31.70;19.42;;;;;;;;;;5082919;28;20501;-71
2021/12/06 02:50:07;;;;;;;30.58;20.00;;;;;;;;;;5070415;28;20047;-71
2021/12/06 02:52:33;;;;;;;30.80;19.55;;;;;;;;;;5106511;27;20044;-71
2021/12/06 02:55:01;;;;;;;28.92;18.88;;;;;;;;;;5071504;28;20044;-71
2021/12/06 02:57:37;;;;;;;32.28;19.92;;;;;;;;;;5069114;28;20056;-71
2021/12/06 03:00:11;;;;;;;30.95;20.48;;;;;;;;;;5070946;28;20079;-71
2021/12/06 03:02:37;;;;;;;28.92;18.67;;;;;;;;;;5054281;28;20082;-71
2021/12/06 03:05:04;;;;;;;34.88;18.30;;;;;;;;;;5053556;28;20040;-71
2021/12/06 03:07:35;;;;;;;33.75;21.55;;;;;;;;;;5070645;28;20068;-71
2021/12/06 03:10:01;;;;;;;31.70;17.95;;;;;;;;;;5094031;28;20096;-71
2021/12/06 03:12:28;;;;;;;32.22;18.35;;;;;;;;;;5066449;28;20078;-71
2021/12/06 03:14:58;;;;;;;30.27;19.38;;;;;;;;;;5070541;28;20477;-71
2021/12/06 03:17:26;;;;;;;31.17;19.02;;;;;;;;;;5067020;28;20395;-71
2021/12/06 03:19:52;;;;;;;32.20;20.17;;;;;;;;;;5068772;28;20087;-71
2021/12/06 03:22:19;;;;;;;33.10;18.15;;;;;;;;;;5065827;28;20127;-71
2021/12/06 03:24:45;;;;;;;27.95;17.45;;;;;;;;;;5070680;28;20102;-71
2021/12/06 03:27:12;;;;;;;31.35;17.90;;;;;;;;;;5052409;28;20127;-71
2021/12/06 03:29:38;;;;;;;35.28;20.08;;;;;;;;;;5067258;28;20079;-71
2021/12/06 03:32:05;;;;;;;33.85;20.50;;;;;;;;;;5062787;28;20067;-71
2021/12/06 03:34:32;;;;;;;35.90;20.08;;;;;;;;;;5066716;28;20053;-71
2021/12/06 03:36:59;;;;;;;35.40;20.50;;;;;;;;;;5070156;28;20069;-71
2021/12/06 03:39:27;;;;;;;34.55;20.10;;;;;;;;;;5069637;28;20055;-71
2021/12/06 03:41:55;;;;;;;35.38;20.08;;;;;;;;;;5077202;28;20481;-71
2021/12/06 03:44:21;;;;;;;34.97;20.52;;;;;;;;;;5069901;28;20040;-71
2021/12/06 03:46:49;;;;;;;38.25;21.85;;;;;;;;;;5100128;28;20619;-71
2021/12/06 03:49:15;;;;;;;36.35;21.55;;;;;;;;;;5070076;28;20394;-71
2021/12/06 03:51:45;;;;;;;39.75;23.77;;;;;;;;;;5073038;28;20049;-71
2021/12/06 03:54:16;;;;;;;38.78;22.88;;;;;;;;;;5068968;28;20079;-71
2021/12/06 03:56:43;;;;;;;36.78;23.30;;;;;;;;;;5068065;28;20036;-71
2021/12/06 03:59:09;;;;;;;38.22;20.63;;;;;;;;;;5053800;28;20064;-71
2021/12/06 04:01:35;;;;;;;41.72;24.25;;;;;;;;;;5068684;28;20486;-71
2021/12/06 04:04:02;;;;;;;34.50;21.88;;;;;;;;;;5068188;28;20039;-71
2021/12/06 04:06:28;;;;;;;37.75;20.70;;;;;;;;;;5068318;28;20072;-71
2021/12/06 04:08:54;;;;;;;40.67;21.58;;;;;;;;;;5068300;28;20047;-72
2021/12/06 04:11:21;;;;;;;35.10;21.25;;;;;;;;;;5073106;28;20047;-71
2021/12/06 04:13:48;;;;;;;46.28;23.55;;;;;;;;;;5069471;28;20045;-71
2021/12/06 04:16:14;;;;;;;37.20;21.45;;;;;;;;;;5050252;28;20127;-71
2021/12/06 04:18:42;;;;;;;33.55;23.02;;;;;;;;;;5072631;28;20044;-71
2021/12/06 04:21:09;;;;;;;40.55;23.10;;;;;;;;;;5068094;28;20056;-71
2021/12/06 04:23:36;;;;;;;42.30;23.77;;;;;;;;;;5066898;28;20028;-71
2021/12/06 04:26:03;;;;;;;38.70;23.08;;;;;;;;;;5053283;28;20493;-71
2021/12/06 04:28:31;;;;;;;40.30;24.15;;;;;;;;;;5072211;28;20040;-71
2021/12/06 04:30:58;;;;;;;37.90;23.50;;;;;;;;;;5070058;28;20128;-71
2021/12/06 04:33:24;;;;;;;42.45;22.70;;;;;;;;;;5072996;28;20197;-71
2021/12/06 04:35:50;;;;;;;44.15;26.85;;;;;;;;;;5069209;28;20390;-71
2021/12/06 04:38:17;;;;;;;48.90;26.27;;;;;;;;;;5072537;28;20111;-71
2021/12/06 04:40:43;;;;;;;50.70;26.88;;;;;;;;;;5070084;28;20051;-71
2021/12/06 04:43:09;;;;;;;47.22;25.50;;;;;;;;;;5069589;28;20044;-71
2021/12/06 04:45:36;;;;;;;49.03;27.48;;;;;;;;;;5071260;28;20032;-71
2021/12/06 04:48:03;;;;;;;52.20;29.15;;;;;;;;;;5072945;28;20044;-71
2021/12/06 04:50:31;;;;;;;49.45;26.88;;;;;;;;;;5071201;28;20036;-71
2021/12/06 04:52:59;;;;;;;48.83;27.90;;;;;;;;;;5072023;28;20044;-71
2021/12/06 04:55:44;;;;;;;53.65;28.20;;;;;;;;;;5074301;28;20079;-71
2021/12/06 04:58:11;;;;;;;46.75;26.38;;;;;;;;;;5104547;28;20051;-72
2021/12/06 05:00:41;;;;;;;47.88;25.60;;;;;;;;;;5076937;28;20067;-71
2021/12/06 05:03:07;;;;;;;46.75;25.45;;;;;;;;;;5069919;28;20542;-71
2021/12/06 05:05:37;;;;;;;43.03;27.45;;;;;;;;;;5073556;28;20425;-71
2021/12/06 05:08:10;;;;;;;48.20;25.83;;;;;;;;;;5079411;28;20036;-71
2021/12/06 05:10:36;;;;;;;51.08;27.48;;;;;;;;;;5117058;27;20065;-72
2021/12/06 05:13:03;;;;;;;44.20;25.98;;;;;;;;;;5073811;28;20516;-72
2021/12/06 05:15:29;;;;;;;39.92;24.27;;;;;;;;;;5074893;28;20040;-72
2021/12/06 05:17:55;;;;;;;43.33;23.67;;;;;;;;;;5067877;28;20084;-72
2021/12/06 05:20:21;;;;;;;47.03;24.50;;;;;;;;;;5054668;28;20443;-71
2021/12/06 05:22:48;;;;;;;45.70;26.90;;;;;;;;;;5074512;28;20045;-72
2021/12/06 05:25:14;;;;;;;43.33;23.33;;;;;;;;;;5077915;28;20402;-72
2021/12/06 05:27:41;;;;;;;44.53;24.55;;;;;;;;;;5074371;28;20127;-72
2021/12/06 05:30:09;;;;;;;52.50;25.85;;;;;;;;;;5050117;28;20055;-72
2021/12/06 05:32:36;;;;;;;45.25;24.98;;;;;;;;;;5067516;28;20042;-72
2021/12/06 05:35:07;;;;;;;43.25;23.63;;;;;;;;;;5052799;28;20422;-72
2021/12/06 05:37:41;;;;;;;43.03;23.20;;;;;;;;;;5067426;28;20040;-72
2021/12/06 05:40:09;;;;;;;35.88;22.35;;;;;;;;;;5071407;28;20076;-72
2021/12/06 05:42:35;;;;;;;43.50;22.33;;;;;;;;;;5074062;28;20087;-72
2021/12/06 05:45:02;;;;;;;37.60;20.80;;;;;;;;;;5076225;28;20045;-72
2021/12/06 05:47:28;;;;;;;36.03;21.45;;;;;;;;;;5070350;28;20506;-71
2021/12/06 05:49:54;;;;;;;42.65;22.35;;;;;;;;;;5072980;28;20076;-72
2021/12/06 05:52:21;;;;;;;37.55;22.52;;;;;;;;;;5072917;28;20059;-72
2021/12/06 05:54:47;;;;;;;38.47;22.95;;;;;;;;;;5085707;28;20433;-72
2021/12/06 05:57:14;;;;;;;38.67;23.17;;;;;;;;;;5072428;28;20036;-72
2021/12/06 05:59:41;;;;;;;41.30;22.33;;;;;;;;;;5071486;28;20047;-72
2021/12/06 06:02:10;;;;;;;41.65;24.27;;;;;;;;;;5072510;28;20055;-72
2021/12/06 06:04:36;;;;;;;43.95;23.60;;;;;;;;;;5070034;28;20049;-72
2021/12/06 06:07:02;;;;;;;42.55;23.25;;;;;;;;;;5068637;28;20076;-72
2021/12/06 06:09:28;;;;;;;35.92;20.67;;;;;;;;;;5072648;28;20040;-72
2021/12/06 06:11:55;;;;;;;44.67;24.50;;;;;;;;;;5068869;28;20098;-72
2021/12/06 06:14:21;;;;;;;41.53;24.23;;;;;;;;;;5072100;28;20052;-72
2021/12/06 06:16:48;;;;;;;39.17;22.10;;;;;;;;;;5072376;28;20029;-71
2021/12/06 06:19:17;;;;;;;42.28;23.00;;;;;;;;;;5070283;28;20676;-72
2021/12/06 06:21:43;;;;;;;39.78;21.90;;;;;;;;;;5069726;28;20090;-72
2021/12/06 06:24:09;;;;;;;40.75;22.60;;;;;;;;;;5072331;28;20037;-72
2021/12/06 06:26:35;;;;;;;37.08;22.50;;;;;;;;;;5072255;28;20041;-71
2021/12/06 06:29:02;;;;;;;38.30;22.65;;;;;;;;;;5072958;28;20046;-72
2021/12/06 06:31:28;;;;;;;35.90;21.27;;;;;;;;;;5053809;28;20044;-72
2021/12/06 06:33:55;;;;;;;43.42;21.25;;;;;;;;;;5062494;28;20625;-72
2021/12/06 06:36:21;;;;;;;41.92;24.70;;;;;;;;;;5067600;28;20040;-72
2021/12/06 06:38:47;;;;;;;40.72;23.33;;;;;;;;;;5065806;28;20033;-72
2021/12/06 06:41:14;;;;;;;39.13;21.98;;;;;;;;;;5078450;28;20044;-72
2021/12/06 06:43:40;;;;;;;47.40;23.58;;;;;;;;;;5071405;28;20040;-72
2021/12/06 06:46:06;;;;;;;39.45;22.63;;;;;;;;;;5072207;28;20052;-72
2021/12/06 06:48:32;;;;;;;43.08;23.27;;;;;;;;;;5076257;28;20048;-72
2021/12/06 06:50:59;;;;;;;44.17;25.02;;;;;;;;;;5060175;28;20052;-72
2021/12/06 06:53:26;;;;;;;45.67;24.08;;;;;;;;;;5071133;28;20044;-72
2021/12/06 06:55:53;;;;;;;45.45;23.42;;;;;;;;;;5075871;28;20132;-72
2021/12/06 06:58:20;;;;;;;41.45;24.42;;;;;;;;;;5076918;28;20159;-72
2021/12/06 07:00:46;;;;;;;47.13;27.08;;;;;;;;;;5084481;28;20071;-72
2021/12/06 07:03:12;;;;;;;52.78;23.38;;;;;;;;;;5070696;28;20040;-72
2021/12/06 07:05:39;;;;;;;43.42;25.35;;;;;;;;;;5073228;28;20037;-72
2021/12/06 07:08:05;;;;;;;43.70;24.52;;;;;;;;;;5072266;28;20052;-72
2021/12/06 07:10:31;;;;;;;49.63;25.67;;;;;;;;;;5072188;28;20145;-71
2021/12/06 07:13:00;;;;;;;48.65;26.83;;;;;;;;;;5072063;28;20044;-73
2021/12/06 07:15:33;;;;;;;47.40;23.50;;;;;;;;;;5072186;28;20101;-72
2021/12/06 07:18:01;;;;;;;41.50;24.00;;;;;;;;;;5069329;28;20502;-72
2021/12/06 07:20:27;;;;;;;39.70;23.35;;;;;;;;;;5068990;28;20291;-72
2021/12/06 07:22:54;;;;;;;53.53;28.23;;;;;;;;;;5072886;28;20044;-72
2021/12/06 07:25:21;;;;;;;51.53;28.50;;;;;;;;;;5071062;28;20032;-72
2021/12/06 07:27:48;;;;;;;47.95;26.55;;;;;;;;;;5105163;27;20938;-72
2021/12/06 07:30:16;;;;;;;58.33;26.60;;;;;;;;;;5066457;28;20045;-72
2021/12/06 07:32:42;;;;;;;48.60;26.42;;;;;;;;;;5071332;28;20493;-72
2021/12/06 07:35:09;;;;;;;45.00;26.17;;;;;;;;;;5070939;28;20036;-72
2021/12/06 07:37:36;;;;;;;46.97;26.08;;;;;;;;;;5055099;28;20041;-72
2021/12/06 07:40:04;;;;;;;49.08;25.67;;;;;;;;;;5071830;28;20501;-72
2021/12/06 07:42:30;;;;;;;43.83;24.75;;;;;;;;;;5071745;28;20032;-72
2021/12/06 07:44:56;;;;;;;51.28;26.33;;;;;;;;;;5070189;28;20059;-72
2021/12/06 07:47:22;;;;;;;43.70;26.73;;;;;;;;;;5070056;28;20510;-71
2021/12/06 07:49:49;;;;;;;54.28;27.10;;;;;;;;;;5071721;28;20493;-72
2021/12/06 07:52:15;;;;;;;51.25;27.75;;;;;;;;;;5073984;28;20112;-72
2021/12/06 07:54:42;;;;;;;47.53;25.45;;;;;;;;;;5070913;28;20059;-72
2021/12/06 07:57:09;;;;;;;47.78;26.52;;;;;;;;;;5072561;28;20048;-72
2021/12/06 07:59:36;;;;;;;57.45;27.02;;;;;;;;;;5072998;28;20063;-72
2021/12/06 08:02:03;;;;;;;46.90;25.58;;;;;;;;;;5077904;28;20044;-71
2021/12/06 08:04:29;;;;;;;55.63;27.98;;;;;;;;;;5072297;28;20393;-72
2021/12/06 08:06:56;;;;;;;56.70;28.58;;;;;;;;;;5069895;28;20041;-72
2021/12/06 08:09:22;;;;;;;45.90;25.65;;;;;;;;;;5073676;28;21149;-72
2021/12/06 08:11:48;;;;;;;47.08;25.15;;;;;;;;;;5078898;28;20101;-72
2021/12/06 08:14:14;;;;;;;48.95;26.90;;;;;;;;;;5072322;28;20120;-71
2021/12/06 08:16:43;;;;;;;45.25;23.92;;;;;;;;;;5072240;28;20162;-72
2021/12/06 08:19:12;;;;;;;45.42;24.20;;;;;;;;;;5071089;28;20048;-72
2021/12/06 08:21:39;;;;;;;46.78;24.85;;;;;;;;;;5102349;28;20517;-72
2021/12/06 08:24:06;;;;;;;43.97;25.65;;;;;;;;;;5072558;28;20039;-72
2021/12/06 08:26:35;;;;;;;49.95;26.60;;;;;;;;;;5106828;28;20420;-71
2021/12/06 08:29:06;;;;;;;46.75;27.13;;;;;;;;;;5073132;28;20041;-72
2021/12/06 08:31:32;;;;;;;45.90;25.10;;;;;;;;;;5070518;28;20048;-72
2021/12/06 08:33:58;;;;;;;44.55;24.17;;;;;;;;;;5067656;28;20044;-72
2021/12/06 08:36:25;;;;;;;53.92;28.60;;;;;;;;;;5069486;28;20033;-72
2021/12/06 08:38:52;;;;;;;47.70;25.73;;;;;;;;;;5071207;28;20501;-72
2021/12/06 08:41:20;;;;;;;50.38;25.83;;;;;;;;;;5104131;28;20127;-72
2021/12/06 08:43:48;;;;;;;42.78;25.17;;;;;;;;;;5104294;28;20044;-71
2021/12/06 08:46:22;;;;;;;45.95;24.50;;;;;;;;;;5081775;28;20043;-72
2021/12/06 08:48:49;;;;;;;45.80;24.88;;;;;;;;;;5063993;28;20507;-72
2021/12/06 08:51:27;;;;;;;41.55;23.48;;;;;;;;;;5084689;28;20506;-72
2021/12/06 08:53:53;;;;;;;47.47;24.75;;;;;;;;;;5057442;28;20039;-71
2021/12/06 08:56:20;;;;;;;49.13;26.20;;;;;;;;;;5069561;28;20041;-72
2021/12/06 08:58:46;;;;;;;43.38;24.13;;;;;;;;;;5070149;28;20033;-72
2021/12/06 09:01:13;;;;;;;57.58;27.52;;;;;;;;;;5070762;28;20043;-70
2021/12/06 09:03:39;;;;;;;42.80;25.15;;;;;;;;;;5068002;28;20066;-70
2021/12/06 09:06:07;;;;;;;53.88;27.77;;;;;;;;;;5069304;28;20086;-69
2021/12/06 09:08:33;;;;;;;51.35;26.90;;;;;;;;;;5065744;28;20496;-70
2021/12/06 09:10:59;;;;;;;53.45;28.30;;;;;;;;;;5069786;28;20285;-70
2021/12/06 09:13:28;;;;;;;54.92;28.48;;;;;;;;;;5066164;28;20040;-70
2021/12/06 09:15:55;;;;;;;57.47;28.20;;;;;;;;;;5100786;28;20048;-70
2021/12/06 09:18:21;;;;;;;56.30;28.08;;;;;;;;;;5092724;28;20053;-69
2021/12/06 09:20:48;;;;;;;61.40;29.30;;;;;;;;;;5070472;28;20517;-70
2021/12/06 09:23:15;;;;;;;54.80;28.52;;;;;;;;;;5070433;28;20029;-70
2021/12/06 09:25:42;;;;;;;56.95;30.25;;;;;;;;;;5066900;28;20379;-69
2021/12/06 09:28:09;;;;;;;62.35;29.42;;;;;;;;;;5071901;28;20115;-70
2021/12/06 09:30:36;;;;;;;60.30;29.20;;;;;;;;;;5070783;28;20102;-70
2021/12/06 09:33:04;;;;;;;60.85;29.35;;;;;;;;;;5070205;28;20045;-70
2021/12/06 09:35:32;;;;;;;66.03;30.33;;;;;;;;;;5060641;28;20037;-70
2021/12/06 09:37:59;;;;;;;58.40;31.75;;;;;;;;;;5075674;28;20032;-70
2021/12/06 09:40:33;;;;;;;51.33;29.30;;;;;;;;;;5068777;28;20036;-70
2021/12/06 09:43:00;;;;;;;76.38;33.13;;;;;;;;;;5070436;28;20097;-70
2021/12/06 09:45:27;;;;;;;68.18;34.00;;;;;;;;;;5057799;28;20051;-70
2021/12/06 09:47:54;;;;;;;64.68;31.73;;;;;;;;;;5069365;28;20126;-69
2021/12/06 09:50:24;;;;;;;60.58;29.20;;;;;;;;;;5078013;28;20037;-70
2021/12/06 09:52:51;;;;;;;64.88;31.52;;;;;;;;;;5076222;28;20096;-70
2021/12/06 09:55:18;;;;;;;66.00;32.58;;;;;;;;;;5079656;28;20043;-70
2021/12/06 09:57:45;;;;;;;64.60;29.25;;;;;;;;;;5067531;28;20040;-69
2021/12/06 10:00:12;;;;;;;70.22;35.10;;;;;;;;;;5069661;28;20072;-70
2021/12/06 10:02:40;;;;;;;69.78;31.98;;;;;;;;;;5069832;28;20113;-70
2021/12/06 10:05:06;;;;;;;65.05;33.30;;;;;;;;;;5068886;28;20371;-70
2021/12/06 10:07:33;;;;;;;66.57;32.53;;;;;;;;;;5072290;28;20636;-70
2021/12/06 10:09:59;;;;;;;65.15;32.58;;;;;;;;;;5071886;28;20135;-69
2021/12/06 10:12:26;;;;;;;65.50;31.83;;;;;;;;;;5084573;28;20454;-70
2021/12/06 10:14:55;;;;;;;58.83;28.73;;;;;;;;;;5072434;28;20032;-70
2021/12/06 10:17:21;;;;;;;55.67;30.90;;;;;;;;;;5103337;28;20052;-70
2021/12/06 10:19:48;;;;;;;53.08;28.67;;;;;;;;;;5072143;28;20040;-70
2021/12/06 10:22:15;;;;;;;49.17;28.20;;;;;;;;;;5069295;28;20131;-70
2021/12/06 10:24:42;;;;;;;58.53;28.58;;;;;;;;;;5085024;28;20089;-70
2021/12/06 10:27:13;;;;;;;58.00;28.67;;;;;;;;;;5064736;28;20037;-70
2021/12/06 10:29:46;;;;;;;60.40;28.60;;;;;;;;;;5067750;28;20410;-72
2021/12/06 10:32:15;;;;;;;59.67;30.10;;;;;;;;;;5070427;28;20052;-70
2021/12/06 10:34:44;;;;;;;61.95;29.33;;;;;;;;;;5070370;28;20048;-70
2021/12/06 10:37:25;;;;;;;60.78;27.10;;;;;;;;;;5069717;28;20044;-72
2021/12/06 10:39:53;;;;;;;54.33;28.63;;;;;;;;;;5058751;28;20037;-72
2021/12/06 10:42:26;;;;;;;54.85;27.55;;;;;;;;;;5074055;28;20089;-72
2021/12/06 10:44:52;;;;;;;52.08;26.17;;;;;;;;;;5069552;28;20047;-72
2021/12/06 10:47:18;;;;;;;49.08;25.85;;;;;;;;;;5064376;28;20067;-72
2021/12/06 10:49:47;;;;;;;53.97;25.88;;;;;;;;;;5076048;28;20072;-70
2021/12/06 10:52:24;;;;;;;42.05;23.30;;;;;;;;;;5065710;28;20040;-70
2021/12/06 10:54:52;;;;;;;50.33;24.55;;;;;;;;;;5068918;28;20048;-70
2021/12/06 10:57:19;;;;;;;58.92;27.23;;;;;;;;;;5074349;28;20040;-71
2021/12/06 10:59:46;;;;;;;39.22;24.35;;;;;;;;;;5072875;28;20040;-71
2021/12/06 11:02:12;;;;;;;51.58;25.05;;;;;;;;;;5100954;27;20521;-71
2021/12/06 11:04:40;;;;;;;45.90;24.60;;;;;;;;;;5076319;28;20055;-71
2021/12/06 11:07:08;;;;;;;57.67;27.52;;;;;;;;;;5071057;28;20029;-71
2021/12/06 11:09:54;;;;;;;63.00;28.75;;;;;;;;;;5070839;28;20506;-71
2021/12/06 11:12:20;;;;;;;46.35;25.23;;;;;;;;;;5075440;28;20470;-71
2021/12/06 11:14:49;;;;;;;56.72;28.55;;;;;;;;;;5070955;28;20430;-71
2021/12/06 11:17:19;;;;;;;62.45;29.52;;;;;;;;;;5106248;27;20136;-71
2021/12/06 11:19:45;;;;;;;55.55;28.15;;;;;;;;;;5060567;28;20044;-71
2021/12/06 11:22:16;;;;;;;53.33;27.30;;;;;;;;;;5067817;28;20050;-70
2021/12/06 11:24:45;;;;;;;50.03;27.15;;;;;;;;;;5079245;28;20387;-71
2021/12/06 11:27:14;;;;;;;51.13;24.65;;;;;;;;;;5065233;28;20048;-71
2021/12/06 11:29:45;;;;;;;39.60;22.00;;;;;;;;;;5063498;28;20035;-70
2021/12/06 11:32:13;;;;;;;42.33;22.70;;;;;;;;;;5073321;28;20079;-71
2021/12/06 11:34:50;;;;;;;42.45;21.75;;;;;;;;;;5073379;28;20084;-71
2021/12/06 11:37:52;;;;;;;44.63;20.55;;;;;;;;;;5067150;28;20397;-71
2021/12/06 11:40:18;;;;;;;36.45;20.65;;;;;;;;;;5037661;28;20446;-71
2021/12/06 11:42:47;;;;;;;38.95;20.70;;;;;;;;;;5056763;28;20063;-70
2021/12/06 11:45:13;;;;;;;35.67;20.00;;;;;;;;;;5071898;28;20068;-71
2021/12/06 11:47:40;;;;;;;42.53;21.13;;;;;;;;;;5074530;28;20033;-70
2021/12/06 11:50:06;;;;;;;35.72;20.55;;;;;;;;;;5054054;28;20516;-71
2021/12/06 11:52:33;;;;;;;37.33;19.83;;;;;;;;;;5068626;28;20079;-71
2021/12/06 11:55:02;;;;;;;34.70;19.75;;;;;;;;;;5070469;28;20037;-71
2021/12/06 11:57:32;;;;;;;34.65;19.83;;;;;;;;;;5071637;28;20040;-71
2021/12/06 12:00:01;;;;;;;35.22;20.90;;;;;;;;;;5068091;28;20068;-71
2021/12/06 12:02:33;;;;;;;44.03;21.80;;;;;;;;;;5062548;28;20036;-71
2021/12/06 12:05:29;;;;;;;38.65;20.40;;;;;;;;;;5065564;28;20040;-71
2021/12/06 12:07:56;;;;;;;48.85;23.38;;;;;;;;;;5062235;28;20044;-71
2021/12/06 12:10:33;;;;;;;44.33;22.73;;;;;;;;;;5069801;28;20064;-71
2021/12/06 12:13:00;;;;;;;49.88;23.92;;;;;;;;;;5079179;28;20048;-71
2021/12/06 12:15:26;;;;;;;43.92;23.20;;;;;;;;;;5055204;28;20097;-71
2021/12/06 12:17:53;;;;;;;41.08;24.63;;;;;;;;;;5072483;28;20052;-71
2021/12/06 12:20:24;;;;;;;48.70;24.38;;;;;;;;;;5077584;28;20056;-71
2021/12/06 12:22:51;;;;;;;51.15;26.08;;;;;;;;;;5066115;28;20044;-71
2021/12/06 12:25:30;;;;;;;52.20;25.83;;;;;;;;;;5050786;28;20483;-71
2021/12/06 12:28:06;;;;;;;55.90;26.75;;;;;;;;;;5070793;28;20036;-72
2021/12/06 12:30:33;;;;;;;55.00;28.08;;;;;;;;;;5068565;28;20033;-71
2021/12/06 12:33:01;;;;;;;54.70;28.52;;;;;;;;;;5064287;28;20051;-71
2021/12/06 12:35:28;;;;;;;57.03;28.98;;;;;;;;;;5072702;28;20041;-70
2021/12/06 12:37:54;;;;;;;53.15;27.65;;;;;;;;;;5052325;28;20401;-71
2021/12/06 12:40:25;;;;;;;60.92;28.90;;;;;;;;;;5070040;28;20571;-71
2021/12/06 12:43:08;;;;;;;70.90;30.45;;;;;;;;;;5070522;28;20036;-71
2021/12/06 12:45:35;;;;;;;57.50;30.85;;;;;;;;;;5068252;28;20045;-71
2021/12/06 12:48:02;;;;;;;73.95;33.17;;;;;;;;;;5062377;28;20086;-71
2021/12/06 12:50:30;;;;;;;54.90;29.15;;;;;;;;;;5069859;28;20082;-71
2021/12/06 12:52:59;;;;;;;69.68;32.90;;;;;;;;;;5067667;28;20045;-71
2021/12/06 12:55:27;;;;;;;82.85;35.72;;;;;;;;;;5061313;28;20051;-71
2021/12/06 12:58:13;;;;;;;71.97;33.80;;;;;;;;;;5068592;28;20045;-70
2021/12/06 13:00:44;;;;;;;65.70;33.55;;;;;;;;;;5050737;28;20123;-71
2021/12/06 13:03:29;;;;;;;54.95;31.52;;;;;;;;;;5069514;28;20036;-71
2021/12/06 13:06:14;;;;;;;65.40;33.17;;;;;;;;;;5069194;28;20545;-71
2021/12/06 13:08:40;;;;;;;58.10;31.08;;;;;;;;;;5075193;28;20045;-71
2021/12/06 13:11:07;;;;;;;70.20;32.33;;;;;;;;;;5100640;28;20048;-71
2021/12/06 13:13:44;;;;;;;67.03;32.78;;;;;;;;;;5070135;28;20482;-70
2021/12/06 13:16:33;;;;;;;55.22;28.65;;;;;;;;;;5070762;28;20401;-71
2021/12/06 13:19:46;;;;;;;59.70;29.60;;;;;;;;;;5070712;28;20053;-71
2021/12/06 13:21:57;;;;;;;51.92;27.48;;;;;;;;;;5058964;28;20044;-71
2021/12/06 13:24:28;;;;;;;55.95;28.58;;;;;;;;;;5079553;28;20043;-70
2021/12/06 13:26:56;;;;;;;60.38;29.20;;;;;;;;;;5052389;28;20048;-71
2021/12/06 13:29:27;;;;;;;55.35;30.92;;;;;;;;;;5062188;28;20044;-71
2021/12/06 13:31:54;;;;;;;58.20;29.77;;;;;;;;;;5073361;28;20055;-70
2021/12/06 13:34:22;;;;;;;57.30;30.02;;;;;;;;;;5070404;28;20029;-71
2021/12/06 13:36:50;;;;;;;62.80;33.88;;;;;;;;;;5068150;28;20051;-71
2021/12/06 13:39:35;;;;;;;61.00;30.83;;;;;;;;;;5066035;28;20255;-71
2021/12/06 13:42:04;;;;;;;56.00;30.25;;;;;;;;;;5087210;28;20048;-71
2021/12/06 13:44:44;;;;;;;63.53;32.80;;;;;;;;;;5062637;28;20049;-70
2021/12/06 13:47:16;;;;;;;61.10;31.80;;;;;;;;;;5072945;28;20044;-71
2021/12/06 13:50:03;;;;;;;65.70;30.90;;;;;;;;;;5073259;28;20035;-71
2021/12/06 13:52:47;;;;;;;61.35;31.98;;;;;;;;;;5057222;28;20089;-71
2021/12/06 13:55:37;;;;;;;54.85;29.67;;;;;;;;;;5063157;28;20059;-71
2021/12/06 13:58:07;;;;;;;57.05;30.20;;;;;;;;;;5075085;28;20086;-71
2021/12/06 14:00:42;;;;;;;61.47;33.83;;;;;;;;;;5071338;28;20033;-71
2021/12/06 14:03:13;;;;;;;53.75;28.20;;;;;;;;;;5083276;28;20040;-70
2021/12/06 14:05:43;;;;;;;59.05;30.92;;;;;;;;;;5074503;28;20414;-71
2021/12/06 14:08:09;;;;;;;56.10;27.95;;;;;;;;;;5073125;28;20128;-71
2021/12/06 14:10:36;;;;;;;47.00;28.90;;;;;;;;;;5081168;28;20039;-70
2021/12/06 14:13:07;;;;;;;52.25;29.33;;;;;;;;;;5070867;28;20090;-71
2021/12/06 14:15:47;;;;;;;56.78;30.13;;;;;;;;;;5073030;28;20037;-71
2021/12/06 14:18:17;;;;;;;54.85;29.10;;;;;;;;;;5079033;28;20056;-71
2021/12/06 14:20:48;;;;;;;59.45;29.00;;;;;;;;;;5075280;28;20037;-71
2021/12/06 14:23:15;;;;;;;52.08;28.52;;;;;;;;;;5053194;28;20045;-70
2021/12/06 14:25:49;;;;;;;61.25;30.33;;;;;;;;;;5083066;28;20102;-71
2021/12/06 14:28:15;;;;;;;53.85;28.85;;;;;;;;;;5077238;28;20032;-71
2021/12/06 14:30:42;;;;;;;61.17;30.08;;;;;;;;;;5071923;28;20056;-71
2021/12/06 14:33:08;;;;;;;55.75;28.17;;;;;;;;;;5070351;28;20036;-71
2021/12/06 14:35:35;;;;;;;54.00;30.00;;;;;;;;;;5068302;28;20559;-71
2021/12/06 14:38:01;;;;;;;52.90;28.60;;;;;;;;;;5069518;28;20409;-71